TAF KSMX
KSMX 081747Z 0818/0918 00000KT 4SM BR FEW001 SCT005 FM081900 30008KT P6SM SCT015 FM090000 31006KT P6SM BKN010 FM090300 VRB03KT P6SM OVC010 FM091000 VRB03KT P6SM VCSH OVC009 FM091500 VRB03KT 3SM -RA BR OVC007=
METAR KSMX
WC KSMX
WS KSMX
WV KSMX